sensor_id;sensor_type;location;lat;lon;timestamp;temperature;humidity
49549;DHT22;35450;44.518;7.466;2024-02-14T00:01:24;8.10;79.20
49549;DHT22;35450;44.518;7.466;2024-02-14T00:04:28;8.20;79.10
49549;DHT22;35450;44.518;7.466;2024-02-14T00:07:32;8.30;79.10
49549;DHT22;35450;44.518;7.466;2024-02-14T00:10:36;8.20;78.90
49549;DHT22;35450;44.518;7.466;2024-02-14T00:13:40;8.20;79.30
49549;DHT22;35450;44.518;7.466;2024-02-14T00:16:44;8.20;79.80
49549;DHT22;35450;44.518;7.466;2024-02-14T00:19:48;8.30;79.00
49549;DHT22;35450;44.518;7.466;2024-02-14T00:22:52;8.20;79.60
49549;DHT22;35450;44.518;7.466;2024-02-14T00:25:56;8.20;80.20
49549;DHT22;35450;44.518;7.466;2024-02-14T00:29:00;8.20;80.20
49549;DHT22;35450;44.518;7.466;2024-02-14T00:32:04;8.20;79.80
49549;DHT22;35450;44.518;7.466;2024-02-14T00:35:19;8.30;79.30
49549;DHT22;35450;44.518;7.466;2024-02-14T00:38:23;8.20;78.90
49549;DHT22;35450;44.518;7.466;2024-02-14T00:41:26;8.00;81.10
49549;DHT22;35450;44.518;7.466;2024-02-14T00:44:33;8.00;80.10
49549;DHT22;35450;44.518;7.466;2024-02-14T00:47:37;8.10;79.70
49549;DHT22;35450;44.518;7.466;2024-02-14T00:50:41;8.00;80.40
49549;DHT22;35450;44.518;7.466;2024-02-14T00:53:45;7.90;80.40
49549;DHT22;35450;44.518;7.466;2024-02-14T00:56:49;7.80;79.60
49549;DHT22;35450;44.518;7.466;2024-02-14T00:59:53;7.90;78.70
49549;DHT22;35450;44.518;7.466;2024-02-14T01:02:57;7.90;78.80
49549;DHT22;35450;44.518;7.466;2024-02-14T01:06:02;7.90;79.20
49549;DHT22;35450;44.518;7.466;2024-02-14T01:09:07;7.80;78.80
49549;DHT22;35450;44.518;7.466;2024-02-14T01:12:12;7.70;79.30
49549;DHT22;35450;44.518;7.466;2024-02-14T01:15:15;7.70;80.10
49549;DHT22;35450;44.518;7.466;2024-02-14T01:18:20;7.60;81.80
49549;DHT22;35450;44.518;7.466;2024-02-14T01:21:24;7.50;80.00
49549;DHT22;35450;44.518;7.466;2024-02-14T01:24:28;7.60;79.30
49549;DHT22;35450;44.518;7.466;2024-02-14T01:27:33;7.60;78.90
49549;DHT22;35450;44.518;7.466;2024-02-14T01:30:37;7.60;79.20
49549;DHT22;35450;44.518;7.466;2024-02-14T01:33:41;7.70;79.10
49549;DHT22;35450;44.518;7.466;2024-02-14T01:36:46;7.80;79.10
49549;DHT22;35450;44.518;7.466;2024-02-14T01:39:50;7.60;80.10
49549;DHT22;35450;44.518;7.466;2024-02-14T01:42:54;7.50;81.20
49549;DHT22;35450;44.518;7.466;2024-02-14T01:46:07;7.60;80.60
49549;DHT22;35450;44.518;7.466;2024-02-14T01:49:18;7.60;80.40
49549;DHT22;35450;44.518;7.466;2024-02-14T01:52:22;7.60;80.30
49549;DHT22;35450;44.518;7.466;2024-02-14T01:55:27;7.60;81.20
49549;DHT22;35450;44.518;7.466;2024-02-14T01:58:34;7.50;81.50
49549;DHT22;35450;44.518;7.466;2024-02-14T02:01:38;7.60;80.40
49549;DHT22;35450;44.518;7.466;2024-02-14T02:04:43;7.70;80.60
49549;DHT22;35450;44.518;7.466;2024-02-14T02:07:47;7.70;80.30
49549;DHT22;35450;44.518;7.466;2024-02-14T02:10:52;7.70;80.40
49549;DHT22;35450;44.518;7.466;2024-02-14T02:14:16;7.80;80.60
49549;DHT22;35450;44.518;7.466;2024-02-14T02:17:40;7.80;80.60
49549;DHT22;35450;44.518;7.466;2024-02-14T02:21:05;7.70;80.50
49549;DHT22;35450;44.518;7.466;2024-02-14T02:24:11;7.70;80.90
49549;DHT22;35450;44.518;7.466;2024-02-14T02:27:15;7.70;80.80
49549;DHT22;35450;44.518;7.466;2024-02-14T02:30:40;7.70;81.40
49549;DHT22;35450;44.518;7.466;2024-02-14T02:33:44;7.70;80.50
49549;DHT22;35450;44.518;7.466;2024-02-14T02:36:47;7.80;80.80
49549;DHT22;35450;44.518;7.466;2024-02-14T02:40:13;7.60;81.00
49549;DHT22;35450;44.518;7.466;2024-02-14T02:43:38;7.60;81.60
49549;DHT22;35450;44.518;7.466;2024-02-14T02:47:02;7.50;81.40
49549;DHT22;35450;44.518;7.466;2024-02-14T02:50:26;7.50;82.30
49549;DHT22;35450;44.518;7.466;2024-02-14T02:53:51;7.40;82.70
49549;DHT22;35450;44.518;7.466;2024-02-14T02:57:18;7.20;83.30
49549;DHT22;35450;44.518;7.466;2024-02-14T03:00:22;7.20;83.90
49549;DHT22;35450;44.518;7.466;2024-02-14T03:03:42;7.20;83.60
49549;DHT22;35450;44.518;7.466;2024-02-14T03:07:02;7.30;83.30
49549;DHT22;35450;44.518;7.466;2024-02-14T03:10:31;7.30;83.20
49549;DHT22;35450;44.518;7.466;2024-02-14T03:13:55;7.30;83.10
49549;DHT22;35450;44.518;7.466;2024-02-14T03:17:19;7.30;83.30
49549;DHT22;35450;44.518;7.466;2024-02-14T03:20:23;7.40;82.50
49549;DHT22;35450;44.518;7.466;2024-02-14T03:23:28;7.50;81.70
49549;DHT22;35450;44.518;7.466;2024-02-14T03:26:32;7.30;82.20
49549;DHT22;35450;44.518;7.466;2024-02-14T03:29:37;7.30;82.30
49549;DHT22;35450;44.518;7.466;2024-02-14T03:32:46;7.40;81.10
49549;DHT22;35450;44.518;7.466;2024-02-14T03:35:49;7.40;81.90
49549;DHT22;35450;44.518;7.466;2024-02-14T03:38:53;7.20;82.40
49549;DHT22;35450;44.518;7.466;2024-02-14T03:41:57;7.20;81.90
49549;DHT22;35450;44.518;7.466;2024-02-14T03:45:05;7.20;82.60
49549;DHT22;35450;44.518;7.466;2024-02-14T03:48:10;7.20;82.30
49549;DHT22;35450;44.518;7.466;2024-02-14T03:51:15;7.20;81.40
49549;DHT22;35450;44.518;7.466;2024-02-14T03:54:20;7.10;80.70
49549;DHT22;35450;44.518;7.466;2024-02-14T03:57:25;7.20;80.50
49549;DHT22;35450;44.518;7.466;2024-02-14T04:00:29;7.20;80.30
49549;DHT22;35450;44.518;7.466;2024-02-14T04:03:34;7.30;80.10
49549;DHT22;35450;44.518;7.466;2024-02-14T04:06:38;7.30;80.30
49549;DHT22;35450;44.518;7.466;2024-02-14T04:09:42;7.30;80.20
49549;DHT22;35450;44.518;7.466;2024-02-14T04:12:46;7.30;79.70
49549;DHT22;35450;44.518;7.466;2024-02-14T04:15:50;7.30;79.10
49549;DHT22;35450;44.518;7.466;2024-02-14T04:18:57;7.40;78.70
49549;DHT22;35450;44.518;7.466;2024-02-14T04:22:01;7.30;79.40
49549;DHT22;35450;44.518;7.466;2024-02-14T04:25:07;7.40;79.30
49549;DHT22;35450;44.518;7.466;2024-02-14T04:28:11;7.30;79.80
49549;DHT22;35450;44.518;7.466;2024-02-14T04:31:16;7.20;81.00
49549;DHT22;35450;44.518;7.466;2024-02-14T04:34:27;7.10;80.60
49549;DHT22;35450;44.518;7.466;2024-02-14T04:37:31;7.10;80.20
49549;DHT22;35450;44.518;7.466;2024-02-14T04:40:36;7.20;79.00
49549;DHT22;35450;44.518;7.466;2024-02-14T04:43:42;7.10;79.10
49549;DHT22;35450;44.518;7.466;2024-02-14T04:46:46;7.20;80.10
49549;DHT22;35450;44.518;7.466;2024-02-14T04:49:49;7.10;81.10
49549;DHT22;35450;44.518;7.466;2024-02-14T04:52:55;7.10;80.90
49549;DHT22;35450;44.518;7.466;2024-02-14T04:55:59;7.20;80.70
49549;DHT22;35450;44.518;7.466;2024-02-14T04:59:03;7.30;80.50
49549;DHT22;35450;44.518;7.466;2024-02-14T05:02:08;7.40;80.90
49549;DHT22;35450;44.518;7.466;2024-02-14T05:05:13;7.30;80.90
49549;DHT22;35450;44.518;7.466;2024-02-14T05:08:30;7.30;80.20
49549;DHT22;35450;44.518;7.466;2024-02-14T05:11:34;7.30;82.30
49549;DHT22;35450;44.518;7.466;2024-02-14T05:14:38;7.30;82.30
49549;DHT22;35450;44.518;7.466;2024-02-14T05:17:44;7.20;81.40
49549;DHT22;35450;44.518;7.466;2024-02-14T05:20:49;7.20;82.00
49549;DHT22;35450;44.518;7.466;2024-02-14T05:23:53;7.30;81.50
49549;DHT22;35450;44.518;7.466;2024-02-14T05:26:57;7.30;81.00
49549;DHT22;35450;44.518;7.466;2024-02-14T05:30:01;7.30;80.50
49549;DHT22;35450;44.518;7.466;2024-02-14T05:33:11;7.30;80.20
49549;DHT22;35450;44.518;7.466;2024-02-14T05:36:15;7.20;81.50
49549;DHT22;35450;44.518;7.466;2024-02-14T05:39:19;7.10;81.30
49549;DHT22;35450;44.518;7.466;2024-02-14T05:42:23;7.20;81.70
49549;DHT22;35450;44.518;7.466;2024-02-14T05:45:27;7.10;81.70
49549;DHT22;35450;44.518;7.466;2024-02-14T05:48:31;7.20;81.00
49549;DHT22;35450;44.518;7.466;2024-02-14T05:51:35;7.30;80.30
49549;DHT22;35450;44.518;7.466;2024-02-14T05:54:39;7.30;80.80
49549;DHT22;35450;44.518;7.466;2024-02-14T05:57:43;7.20;80.80
49549;DHT22;35450;44.518;7.466;2024-02-14T06:00:47;7.10;81.10
49549;DHT22;35450;44.518;7.466;2024-02-14T06:03:51;7.10;82.20
49549;DHT22;35450;44.518;7.466;2024-02-14T06:06:55;7.10;80.50
49549;DHT22;35450;44.518;7.466;2024-02-14T06:09:59;7.10;80.10
49549;DHT22;35450;44.518;7.466;2024-02-14T06:13:03;7.10;80.30
49549;DHT22;35450;44.518;7.466;2024-02-14T06:16:07;7.20;80.30
49549;DHT22;35450;44.518;7.466;2024-02-14T06:19:12;7.10;80.50
49549;DHT22;35450;44.518;7.466;2024-02-14T06:22:16;7.00;80.70
49549;DHT22;35450;44.518;7.466;2024-02-14T06:25:20;7.10;79.90
49549;DHT22;35450;44.518;7.466;2024-02-14T06:28:33;7.10;80.60
49549;DHT22;35450;44.518;7.466;2024-02-14T06:31:37;7.10;81.60
49549;DHT22;35450;44.518;7.466;2024-02-14T06:34:41;7.00;81.90
49549;DHT22;35450;44.518;7.466;2024-02-14T06:37:45;6.90;82.50
49549;DHT22;35450;44.518;7.466;2024-02-14T06:40:49;6.80;82.50
49549;DHT22;35450;44.518;7.466;2024-02-14T06:43:55;6.90;82.30
49549;DHT22;35450;44.518;7.466;2024-02-14T06:46:59;7.00;82.30
49549;DHT22;35450;44.518;7.466;2024-02-14T06:50:03;7.10;82.00
49549;DHT22;35450;44.518;7.466;2024-02-14T06:53:09;7.10;82.40
49549;DHT22;35450;44.518;7.466;2024-02-14T06:56:13;7.10;82.20
49549;DHT22;35450;44.518;7.466;2024-02-14T06:59:17;7.10;82.10
49549;DHT22;35450;44.518;7.466;2024-02-14T07:02:21;7.10;82.50
49549;DHT22;35450;44.518;7.466;2024-02-14T07:05:26;7.20;82.80
49549;DHT22;35450;44.518;7.466;2024-02-14T07:08:31;7.20;82.40
49549;DHT22;35450;44.518;7.466;2024-02-14T07:11:35;7.20;82.10
49549;DHT22;35450;44.518;7.466;2024-02-14T07:14:42;7.00;82.80
49549;DHT22;35450;44.518;7.466;2024-02-14T07:17:46;7.00;83.20
49549;DHT22;35450;44.518;7.466;2024-02-14T07:20:49;7.10;83.00
49549;DHT22;35450;44.518;7.466;2024-02-14T07:23:54;7.30;82.80
49549;DHT22;35450;44.518;7.466;2024-02-14T07:26:58;7.20;82.70
49549;DHT22;35450;44.518;7.466;2024-02-14T07:30:02;7.10;83.40
49549;DHT22;35450;44.518;7.466;2024-02-14T07:33:07;7.20;84.20
49549;DHT22;35450;44.518;7.466;2024-02-14T07:36:12;7.30;84.60
49549;DHT22;35450;44.518;7.466;2024-02-14T07:39:16;7.40;84.00
49549;DHT22;35450;44.518;7.466;2024-02-14T07:42:20;7.50;83.30
49549;DHT22;35450;44.518;7.466;2024-02-14T07:45:24;7.50;83.70
49549;DHT22;35450;44.518;7.466;2024-02-14T07:48:28;7.70;84.30
49549;DHT22;35450;44.518;7.466;2024-02-14T07:51:32;7.80;84.00
49549;DHT22;35450;44.518;7.466;2024-02-14T07:54:41;7.60;84.60
49549;DHT22;35450;44.518;7.466;2024-02-14T07:57:45;7.70;85.00
49549;DHT22;35450;44.518;7.466;2024-02-14T08:00:50;7.80;84.80
49549;DHT22;35450;44.518;7.466;2024-02-14T08:03:54;7.90;83.70
49549;DHT22;35450;44.518;7.466;2024-02-14T08:06:58;8.00;83.50
49549;DHT22;35450;44.518;7.466;2024-02-14T08:10:03;8.10;83.60
49549;DHT22;35450;44.518;7.466;2024-02-14T08:13:08;8.20;83.10
49549;DHT22;35450;44.518;7.466;2024-02-14T08:16:13;8.20;82.30
49549;DHT22;35450;44.518;7.466;2024-02-14T08:19:17;8.30;80.40
49549;DHT22;35450;44.518;7.466;2024-02-14T08:22:22;8.30;80.00
49549;DHT22;35450;44.518;7.466;2024-02-14T08:25:26;8.40;79.60
49549;DHT22;35450;44.518;7.466;2024-02-14T08:28:30;8.50;79.20
49549;DHT22;35450;44.518;7.466;2024-02-14T08:31:34;8.50;79.20
49549;DHT22;35450;44.518;7.466;2024-02-14T08:34:38;8.60;79.20
49549;DHT22;35450;44.518;7.466;2024-02-14T08:37:42;8.70;78.50
49549;DHT22;35450;44.518;7.466;2024-02-14T08:40:47;8.70;78.20
49549;DHT22;35450;44.518;7.466;2024-02-14T08:43:51;8.80;78.00
49549;DHT22;35450;44.518;7.466;2024-02-14T08:46:56;8.80;78.10
49549;DHT22;35450;44.518;7.466;2024-02-14T08:50:00;8.80;78.10
49549;DHT22;35450;44.518;7.466;2024-02-14T08:53:04;8.90;78.30
49549;DHT22;35450;44.518;7.466;2024-02-14T08:56:08;9.00;78.50
49549;DHT22;35450;44.518;7.466;2024-02-14T08:59:12;9.00;79.10
49549;DHT22;35450;44.518;7.466;2024-02-14T09:02:17;9.10;78.10
49549;DHT22;35450;44.518;7.466;2024-02-14T09:05:21;9.10;77.20
49549;DHT22;35450;44.518;7.466;2024-02-14T09:08:26;9.10;78.20
49549;DHT22;35450;44.518;7.466;2024-02-14T09:11:30;9.20;78.10
49549;DHT22;35450;44.518;7.466;2024-02-14T09:14:35;9.20;77.30
49549;DHT22;35450;44.518;7.466;2024-02-14T09:17:40;9.20;77.90
49549;DHT22;35450;44.518;7.466;2024-02-14T09:20:45;9.20;79.50
49549;DHT22;35450;44.518;7.466;2024-02-14T09:23:50;9.20;79.60
49549;DHT22;35450;44.518;7.466;2024-02-14T09:26:54;9.10;79.70
49549;DHT22;35450;44.518;7.466;2024-02-14T09:29:58;9.20;80.30
49549;DHT22;35450;44.518;7.466;2024-02-14T09:33:03;9.20;79.10
49549;DHT22;35450;44.518;7.466;2024-02-14T09:36:09;9.20;79.90
49549;DHT22;35450;44.518;7.466;2024-02-14T09:39:13;9.20;80.00
49549;DHT22;35450;44.518;7.466;2024-02-14T09:42:28;9.30;79.70
49549;DHT22;35450;44.518;7.466;2024-02-14T09:45:33;9.30;79.10
49549;DHT22;35450;44.518;7.466;2024-02-14T09:48:37;9.40;78.30
49549;DHT22;35450;44.518;7.466;2024-02-14T09:51:44;9.40;77.50
49549;DHT22;35450;44.518;7.466;2024-02-14T09:54:48;9.40;77.00
49549;DHT22;35450;44.518;7.466;2024-02-14T09:57:54;9.50;77.80
49549;DHT22;35450;44.518;7.466;2024-02-14T10:00:59;9.60;78.10
49549;DHT22;35450;44.518;7.466;2024-02-14T10:04:05;9.60;78.30
49549;DHT22;35450;44.518;7.466;2024-02-14T10:07:13;9.70;78.30
49549;DHT22;35450;44.518;7.466;2024-02-14T10:10:17;9.70;77.40
49549;DHT22;35450;44.518;7.466;2024-02-14T10:13:28;9.80;78.40
49549;DHT22;35450;44.518;7.466;2024-02-14T10:16:35;9.80;78.10
49549;DHT22;35450;44.518;7.466;2024-02-14T10:19:39;9.80;79.70
49549;DHT22;35450;44.518;7.466;2024-02-14T10:22:44;9.80;79.30
49549;DHT22;35450;44.518;7.466;2024-02-14T10:25:58;9.80;77.90
49549;DHT22;35450;44.518;7.466;2024-02-14T10:29:02;9.90;78.20
49549;DHT22;35450;44.518;7.466;2024-02-14T10:32:06;9.90;78.20
49549;DHT22;35450;44.518;7.466;2024-02-14T10:35:11;10.00;79.20
49549;DHT22;35450;44.518;7.466;2024-02-14T10:38:17;10.00;78.70
49549;DHT22;35450;44.518;7.466;2024-02-14T10:41:24;10.00;78.30
49549;DHT22;35450;44.518;7.466;2024-02-14T10:44:29;10.10;77.70
49549;DHT22;35450;44.518;7.466;2024-02-14T10:47:35;10.20;77.00
49549;DHT22;35450;44.518;7.466;2024-02-14T10:50:44;10.20;77.10
49549;DHT22;35450;44.518;7.466;2024-02-14T10:53:49;10.30;76.70
49549;DHT22;35450;44.518;7.466;2024-02-14T10:56:58;10.20;76.50
49549;DHT22;35450;44.518;7.466;2024-02-14T11:00:09;10.30;77.40
49549;DHT22;35450;44.518;7.466;2024-02-14T11:03:14;10.30;77.70
49549;DHT22;35450;44.518;7.466;2024-02-14T11:06:19;10.40;77.20
49549;DHT22;35450;44.518;7.466;2024-02-14T11:09:32;10.50;78.20
49549;DHT22;35450;44.518;7.466;2024-02-14T11:12:37;10.50;77.20
49549;DHT22;35450;44.518;7.466;2024-02-14T11:15:45;10.50;77.20
49549;DHT22;35450;44.518;7.466;2024-02-14T11:18:50;10.50;77.50
49549;DHT22;35450;44.518;7.466;2024-02-14T11:21:55;10.50;76.40
49549;DHT22;35450;44.518;7.466;2024-02-14T11:25:06;10.50;76.10
49549;DHT22;35450;44.518;7.466;2024-02-14T11:28:24;10.50;76.50
49549;DHT22;35450;44.518;7.466;2024-02-14T11:31:35;10.60;75.70
49549;DHT22;35450;44.518;7.466;2024-02-14T11:34:41;10.60;75.80
49549;DHT22;35450;44.518;7.466;2024-02-14T11:37:51;10.60;74.40
49549;DHT22;35450;44.518;7.466;2024-02-14T11:40:56;10.60;74.10
49549;DHT22;35450;44.518;7.466;2024-02-14T11:44:03;10.70;74.50
49549;DHT22;35450;44.518;7.466;2024-02-14T11:47:09;10.80;75.80
49549;DHT22;35450;44.518;7.466;2024-02-14T11:50:13;10.80;75.50
49549;DHT22;35450;44.518;7.466;2024-02-14T11:53:18;10.80;76.60
49549;DHT22;35450;44.518;7.466;2024-02-14T11:56:23;10.80;74.90
49549;DHT22;35450;44.518;7.466;2024-02-14T11:59:27;10.90;74.40
49549;DHT22;35450;44.518;7.466;2024-02-14T12:02:32;10.90;74.50
49549;DHT22;35450;44.518;7.466;2024-02-14T12:05:36;10.90;76.90
49549;DHT22;35450;44.518;7.466;2024-02-14T12:08:41;11.00;76.90
49549;DHT22;35450;44.518;7.466;2024-02-14T12:11:46;11.00;77.20
49549;DHT22;35450;44.518;7.466;2024-02-14T12:14:53;11.00;76.30
49549;DHT22;35450;44.518;7.466;2024-02-14T12:17:57;11.10;76.40
49549;DHT22;35450;44.518;7.466;2024-02-14T12:21:05;11.10;75.50
49549;DHT22;35450;44.518;7.466;2024-02-14T12:24:13;11.10;76.70
49549;DHT22;35450;44.518;7.466;2024-02-14T12:27:18;11.10;77.00
49549;DHT22;35450;44.518;7.466;2024-02-14T12:30:23;11.20;76.40
49549;DHT22;35450;44.518;7.466;2024-02-14T12:33:32;11.10;77.70
49549;DHT22;35450;44.518;7.466;2024-02-14T12:36:36;11.20;76.00
49549;DHT22;35450;44.518;7.466;2024-02-14T12:39:41;11.20;74.80
49549;DHT22;35450;44.518;7.466;2024-02-14T12:42:46;11.30;74.30
49549;DHT22;35450;44.518;7.466;2024-02-14T12:45:50;11.30;74.30
49549;DHT22;35450;44.518;7.466;2024-02-14T12:48:54;11.30;73.90
49549;DHT22;35450;44.518;7.466;2024-02-14T12:51:58;11.30;73.50
49549;DHT22;35450;44.518;7.466;2024-02-14T12:55:02;11.40;73.40
49549;DHT22;35450;44.518;7.466;2024-02-14T12:58:07;11.40;73.40
49549;DHT22;35450;44.518;7.466;2024-02-14T13:01:13;11.40;72.30
49549;DHT22;35450;44.518;7.466;2024-02-14T13:04:19;11.40;71.80
49549;DHT22;35450;44.518;7.466;2024-02-14T13:07:23;11.40;73.70
49549;DHT22;35450;44.518;7.466;2024-02-14T13:10:28;11.40;73.10
49549;DHT22;35450;44.518;7.466;2024-02-14T13:13:32;11.50;72.90
49549;DHT22;35450;44.518;7.466;2024-02-14T13:16:38;11.50;72.70
49549;DHT22;35450;44.518;7.466;2024-02-14T13:19:42;11.60;74.10
49549;DHT22;35450;44.518;7.466;2024-02-14T13:22:46;11.50;74.00
49549;DHT22;35450;44.518;7.466;2024-02-14T13:25:50;11.60;75.70
49549;DHT22;35450;44.518;7.466;2024-02-14T13:28:54;11.60;73.70
49549;DHT22;35450;44.518;7.466;2024-02-14T13:31:59;11.70;74.00
49549;DHT22;35450;44.518;7.466;2024-02-14T13:35:05;11.70;73.30
49549;DHT22;35450;44.518;7.466;2024-02-14T13:38:09;11.70;72.60
49549;DHT22;35450;44.518;7.466;2024-02-14T13:41:13;11.60;72.60
49549;DHT22;35450;44.518;7.466;2024-02-14T13:44:18;11.70;73.90
49549;DHT22;35450;44.518;7.466;2024-02-14T13:47:22;11.80;73.10
49549;DHT22;35450;44.518;7.466;2024-02-14T13:50:28;11.80;73.00
49549;DHT22;35450;44.518;7.466;2024-02-14T13:53:32;11.80;73.80
49549;DHT22;35450;44.518;7.466;2024-02-14T13:56:36;11.80;73.10
49549;DHT22;35450;44.518;7.466;2024-02-14T13:59:40;11.80;72.60
49549;DHT22;35450;44.518;7.466;2024-02-14T14:02:46;11.80;73.40
49549;DHT22;35450;44.518;7.466;2024-02-14T14:05:50;11.90;73.90
49549;DHT22;35450;44.518;7.466;2024-02-14T14:08:54;11.90;74.00
49549;DHT22;35450;44.518;7.466;2024-02-14T14:11:58;11.90;73.00
49549;DHT22;35450;44.518;7.466;2024-02-14T14:15:03;12.00;73.20
49549;DHT22;35450;44.518;7.466;2024-02-14T14:18:09;12.00;73.20
49549;DHT22;35450;44.518;7.466;2024-02-14T14:21:15;12.10;73.40
49549;DHT22;35450;44.518;7.466;2024-02-14T14:24:19;12.10;73.20
49549;DHT22;35450;44.518;7.466;2024-02-14T14:27:23;12.20;71.40
49549;DHT22;35450;44.518;7.466;2024-02-14T14:30:27;12.20;71.30
49549;DHT22;35450;44.518;7.466;2024-02-14T14:33:31;12.30;70.80
49549;DHT22;35450;44.518;7.466;2024-02-14T14:36:35;12.30;71.70
49549;DHT22;35450;44.518;7.466;2024-02-14T14:39:41;12.30;71.80
49549;DHT22;35450;44.518;7.466;2024-02-14T14:42:48;12.40;71.50
49549;DHT22;35450;44.518;7.466;2024-02-14T14:45:52;12.40;71.10
49549;DHT22;35450;44.518;7.466;2024-02-14T14:48:57;12.50;71.10
49549;DHT22;35450;44.518;7.466;2024-02-14T14:52:02;12.60;71.40
49549;DHT22;35450;44.518;7.466;2024-02-14T14:55:08;12.60;70.00
49549;DHT22;35450;44.518;7.466;2024-02-14T14:58:13;12.70;69.90
49549;DHT22;35450;44.518;7.466;2024-02-14T15:01:17;12.70;69.80
49549;DHT22;35450;44.518;7.466;2024-02-14T15:04:21;12.70;70.20
49549;DHT22;35450;44.518;7.466;2024-02-14T15:07:25;12.80;70.30
49549;DHT22;35450;44.518;7.466;2024-02-14T15:10:29;12.80;70.00
49549;DHT22;35450;44.518;7.466;2024-02-14T15:13:33;12.80;70.00
49549;DHT22;35450;44.518;7.466;2024-02-14T15:16:37;12.80;70.00
49549;DHT22;35450;44.518;7.466;2024-02-14T15:19:41;12.70;70.40
49549;DHT22;35450;44.518;7.466;2024-02-14T15:22:45;12.70;70.60
49549;DHT22;35450;44.518;7.466;2024-02-14T15:25:49;12.70;70.40
49549;DHT22;35450;44.518;7.466;2024-02-14T15:28:54;12.70;70.80
49549;DHT22;35450;44.518;7.466;2024-02-14T15:32:21;12.70;71.20
49549;DHT22;35450;44.518;7.466;2024-02-14T15:35:44;12.60;71.00
49549;DHT22;35450;44.518;7.466;2024-02-14T15:38:48;12.70;70.90
49549;DHT22;35450;44.518;7.466;2024-02-14T15:41:53;12.70;70.30
49549;DHT22;35450;44.518;7.466;2024-02-14T15:44:57;12.70;70.90
49549;DHT22;35450;44.518;7.466;2024-02-14T15:48:01;12.70;70.80
49549;DHT22;35450;44.518;7.466;2024-02-14T15:51:06;12.70;72.60
49549;DHT22;35450;44.518;7.466;2024-02-14T15:54:10;12.70;74.10
49549;DHT22;35450;44.518;7.466;2024-02-14T15:57:14;12.80;77.20
49549;DHT22;35450;44.518;7.466;2024-02-14T16:00:18;12.60;77.30
49549;DHT22;35450;44.518;7.466;2024-02-14T16:03:23;12.50;77.50
49549;DHT22;35450;44.518;7.466;2024-02-14T16:06:27;12.40;78.20
49549;DHT22;35450;44.518;7.466;2024-02-14T16:09:31;12.30;78.40
49549;DHT22;35450;44.518;7.466;2024-02-14T16:12:35;12.30;78.30
49549;DHT22;35450;44.518;7.466;2024-02-14T16:15:39;12.30;76.30
49549;DHT22;35450;44.518;7.466;2024-02-14T16:18:43;12.20;77.90
49549;DHT22;35450;44.518;7.466;2024-02-14T16:21:47;12.10;80.40
49549;DHT22;35450;44.518;7.466;2024-02-14T16:24:51;12.00;80.40
49549;DHT22;35450;44.518;7.466;2024-02-14T16:27:57;11.80;80.70
49549;DHT22;35450;44.518;7.466;2024-02-14T16:31:01;11.60;80.60
49549;DHT22;35450;44.518;7.466;2024-02-14T16:34:05;11.60;82.20
49549;DHT22;35450;44.518;7.466;2024-02-14T16:37:12;11.50;80.50
49549;DHT22;35450;44.518;7.466;2024-02-14T16:40:21;11.50;79.80
49549;DHT22;35450;44.518;7.466;2024-02-14T16:43:25;11.50;80.00
49549;DHT22;35450;44.518;7.466;2024-02-14T16:46:30;11.40;80.60
49549;DHT22;35450;44.518;7.466;2024-02-14T16:49:35;11.20;80.80
49549;DHT22;35450;44.518;7.466;2024-02-14T16:52:56;11.20;81.60
49549;DHT22;35450;44.518;7.466;2024-02-14T16:56:00;11.10;80.80
49549;DHT22;35450;44.518;7.466;2024-02-14T16:59:04;11.00;81.20
49549;DHT22;35450;44.518;7.466;2024-02-14T17:02:09;11.00;81.50
49549;DHT22;35450;44.518;7.466;2024-02-14T17:05:13;10.80;81.10
49549;DHT22;35450;44.518;7.466;2024-02-14T17:08:19;10.70;81.30
49549;DHT22;35450;44.518;7.466;2024-02-14T17:11:25;10.70;81.70
49549;DHT22;35450;44.518;7.466;2024-02-14T17:14:30;10.70;82.00
49549;DHT22;35450;44.518;7.466;2024-02-14T17:17:36;10.50;82.20
49549;DHT22;35450;44.518;7.466;2024-02-14T17:20:41;10.40;81.70
49549;DHT22;35450;44.518;7.466;2024-02-14T17:23:46;10.30;81.70
49549;DHT22;35450;44.518;7.466;2024-02-14T17:26:50;10.30;82.10
49549;DHT22;35450;44.518;7.466;2024-02-14T17:29:54;10.30;82.40
49549;DHT22;35450;44.518;7.466;2024-02-14T17:32:58;10.20;82.10
49549;DHT22;35450;44.518;7.466;2024-02-14T17:36:05;10.10;82.30
49549;DHT22;35450;44.518;7.466;2024-02-14T17:39:09;10.10;82.30
49549;DHT22;35450;44.518;7.466;2024-02-14T17:42:13;10.10;82.30
49549;DHT22;35450;44.518;7.466;2024-02-14T17:45:17;10.00;82.70
49549;DHT22;35450;44.518;7.466;2024-02-14T17:48:22;10.00;83.10
49549;DHT22;35450;44.518;7.466;2024-02-14T17:51:26;9.90;83.40
49549;DHT22;35450;44.518;7.466;2024-02-14T17:54:30;9.90;83.40
49549;DHT22;35450;44.518;7.466;2024-02-14T17:57:35;9.90;83.40
49549;DHT22;35450;44.518;7.466;2024-02-14T18:00:39;9.90;83.20
49549;DHT22;35450;44.518;7.466;2024-02-14T18:03:43;10.00;83.50
49549;DHT22;35450;44.518;7.466;2024-02-14T18:06:47;9.90;83.70
49549;DHT22;35450;44.518;7.466;2024-02-14T18:09:51;9.90;83.70
49549;DHT22;35450;44.518;7.466;2024-02-14T18:12:55;9.90;83.80
49549;DHT22;35450;44.518;7.466;2024-02-14T18:15:59;9.90;83.50
49549;DHT22;35450;44.518;7.466;2024-02-14T18:19:04;9.80;83.20
49549;DHT22;35450;44.518;7.466;2024-02-14T18:22:08;9.80;83.50
49549;DHT22;35450;44.518;7.466;2024-02-14T18:25:13;9.80;84.00
49549;DHT22;35450;44.518;7.466;2024-02-14T18:28:17;9.80;83.70
49549;DHT22;35450;44.518;7.466;2024-02-14T18:31:21;9.80;83.90
49549;DHT22;35450;44.518;7.466;2024-02-14T18:34:25;9.80;83.70
49549;DHT22;35450;44.518;7.466;2024-02-14T18:37:29;9.80;83.90
49549;DHT22;35450;44.518;7.466;2024-02-14T18:40:34;9.70;82.70
49549;DHT22;35450;44.518;7.466;2024-02-14T18:43:38;9.70;83.50
49549;DHT22;35450;44.518;7.466;2024-02-14T18:46:42;9.60;85.10
49549;DHT22;35450;44.518;7.466;2024-02-14T18:49:50;9.50;84.60
49549;DHT22;35450;44.518;7.466;2024-02-14T18:52:54;9.60;84.40
49549;DHT22;35450;44.518;7.466;2024-02-14T18:55:59;9.70;84.00
49549;DHT22;35450;44.518;7.466;2024-02-14T18:59:03;9.60;84.30
49549;DHT22;35450;44.518;7.466;2024-02-14T19:02:07;9.60;84.40
49549;DHT22;35450;44.518;7.466;2024-02-14T19:05:11;9.50;84.70
49549;DHT22;35450;44.518;7.466;2024-02-14T19:08:21;9.50;84.50
49549;DHT22;35450;44.518;7.466;2024-02-14T19:11:25;9.50;84.60
49549;DHT22;35450;44.518;7.466;2024-02-14T19:14:29;9.50;84.50
49549;DHT22;35450;44.518;7.466;2024-02-14T19:17:33;9.50;85.00
49549;DHT22;35450;44.518;7.466;2024-02-14T19:20:37;9.50;85.00
49549;DHT22;35450;44.518;7.466;2024-02-14T19:23:41;9.50;84.50
49549;DHT22;35450;44.518;7.466;2024-02-14T19:26:45;9.40;84.80
49549;DHT22;35450;44.518;7.466;2024-02-14T19:29:49;9.40;85.30
49549;DHT22;35450;44.518;7.466;2024-02-14T19:32:53;9.30;85.80
49549;DHT22;35450;44.518;7.466;2024-02-14T19:35:57;9.30;85.60
49549;DHT22;35450;44.518;7.466;2024-02-14T19:39:01;9.30;84.90
49549;DHT22;35450;44.518;7.466;2024-02-14T19:42:06;9.40;85.00
49549;DHT22;35450;44.518;7.466;2024-02-14T19:45:10;9.30;84.50